Time;durP1;ratioP1;P1;durP2;ratioP2;P2;SDS_P1;SDS_P2;PMS_P1;PMS_P2;Temp;Humidity;BMP_temperature;BMP_pressure;BME280_temperature;BME280_humidity;BME280_pressure;Samples;Min_cycle;Max_cycle;Signal;HPM_P1;HPM_P2
2021/08/31 00:00:23;;;;;;;7.05;5.97;;;;;;;28.52;38.67;100975.75;144994;620;5002;-81
2021/08/31 00:02:50;;;;;;;4.70;3.70;;;;;;;28.49;38.53;100975.87;144994;569;5002;-80
2021/08/31 00:05:16;;;;;;;9.20;5.03;;;;;;;28.44;38.55;100970.72;144994;563;5018;-82
2021/08/31 00:07:43;;;;;;;8.15;5.40;;;;;;;28.43;38.42;100979.69;144994;580;5002;-80
2021/08/31 00:10:11;;;;;;;6.22;4.95;;;;;;;28.44;38.46;100978.72;144994;593;5002;-80
2021/08/31 00:12:39;;;;;;;3.20;2.60;;;;;;;28.43;38.52;100974.34;144994;577;5014;-81
2021/08/31 00:15:07;;;;;;;6.85;4.20;;;;;;;28.41;38.33;100977.06;144994;578;5002;-81
2021/08/31 00:17:34;;;;;;;5.35;4.07;;;;;;;28.40;38.20;100982.47;144994;650;5002;-81
2021/08/31 00:20:00;;;;;;;4.85;4.30;;;;;;;28.40;38.27;100980.66;144994;574;5002;-82
2021/08/31 00:22:27;;;;;;;4.50;4.10;;;;;;;28.42;38.10;100978.78;144994;572;5002;-80
2021/08/31 00:24:53;;;;;;;4.80;3.37;;;;;;;28.40;38.21;100979.81;144994;589;5002;-81
2021/08/31 00:27:20;;;;;;;4.32;3.05;;;;;;;28.39;38.07;100986.91;144994;592;5002;-81
2021/08/31 00:29:46;;;;;;;3.83;3.33;;;;;;;28.38;37.71;100978.97;144994;588;5002;-81
2021/08/31 00:32:13;;;;;;;4.70;4.03;;;;;;;28.37;38.04;100986.13;144994;591;5002;-80
2021/08/31 00:34:39;;;;;;;4.30;3.62;;;;;;;28.36;37.96;100988.84;144994;619;5002;-80
2021/08/31 00:37:06;;;;;;;4.85;3.87;;;;;;;28.35;37.85;100998.66;144994;689;5002;-80
2021/08/31 00:39:32;;;;;;;5.03;3.62;;;;;;;28.34;37.90;100998.72;144994;574;5002;-81
2021/08/31 00:41:58;;;;;;;4.10;3.70;;;;;;;28.34;37.80;100994.25;144994;577;5002;-79
2021/08/31 00:44:27;;;;;;;2.55;2.35;;;;;;;28.32;37.75;100997.94;144994;648;5002;-81
2021/08/31 00:46:54;;;;;;;4.70;4.00;;;;;;;28.31;37.75;100998.84;144994;589;5002;-81
2021/08/31 00:49:21;;;;;;;4.25;3.85;;;;;;;28.30;37.72;101002.44;144994;575;5002;-80
2021/08/31 00:51:48;;;;;;;5.03;3.80;;;;;;;28.25;37.91;100999.09;144994;603;5002;-82
2021/08/31 00:54:17;;;;;;;4.82;3.58;;;;;;;28.24;37.83;100992.91;144994;607;5002;-80
2021/08/31 00:56:54;;;;;;;2.53;2.33;;;;;;;28.23;37.68;101000.00;144994;606;5002;-81
2021/08/31 00:59:21;;;;;;;4.43;2.87;;;;;;;28.22;37.55;101000.97;144994;612;5002;-82
2021/08/31 01:01:49;;;;;;;3.75;2.33;;;;;;;28.20;37.38;100996.59;144994;571;5002;-82
2021/08/31 01:04:17;;;;;;;4.05;3.05;;;;;;;28.20;37.34;100997.47;144994;576;5002;-80
2021/08/31 01:06:44;;;;;;;3.95;3.10;;;;;;;28.21;37.48;100991.19;144994;657;5002;-80
2021/08/31 01:09:12;;;;;;;3.35;2.42;;;;;;;28.22;37.47;100990.28;144994;719;5002;-81
2021/08/31 01:11:38;;;;;;;5.57;2.17;;;;;;;28.22;37.14;100989.37;144993;570;5002;-80
2021/08/31 01:14:07;;;;;;;3.87;2.28;;;;;;;28.21;36.94;100987.69;144994;590;5002;-81
2021/08/31 01:16:34;;;;;;;2.50;2.30;;;;;;;28.19;37.20;100998.41;144994;575;5002;-82
2021/08/31 01:19:01;;;;;;;3.95;3.03;;;;;;;28.19;37.06;100993.06;144994;569;5002;-81
2021/08/31 01:21:29;;;;;;;3.95;2.70;;;;;;;28.17;37.29;100994.06;144994;600;5002;-81
2021/08/31 01:23:56;;;;;;;4.57;3.20;;;;;;;28.15;37.52;100999.44;144994;651;5002;-80
2021/08/31 01:26:22;;;;;;;4.68;3.87;;;;;;;28.13;37.56;101000.47;144994;569;5002;-80
2021/08/31 01:28:49;;;;;;;4.25;3.15;;;;;;;28.12;37.54;100998.72;144994;738;5002;-80
2021/08/31 01:31:15;;;;;;;4.93;3.08;;;;;;;28.12;37.63;100998.72;144994;576;5002;-80
2021/08/31 01:33:41;;;;;;;4.03;2.92;;;;;;;28.11;37.77;101003.19;144994;591;5002;-80
2021/08/31 01:36:20;;;;;;;4.18;3.15;;;;;;;28.10;37.83;101000.56;144994;582;5002;-79
2021/08/31 01:38:50;;;;;;;3.37;3.00;;;;;;;28.10;37.77;101001.44;144994;579;5002;-81
2021/08/31 01:41:17;;;;;;;3.92;3.10;;;;;;;28.09;37.72;101006.84;144994;572;5002;-81
2021/08/31 01:43:44;;;;;;;4.12;2.67;;;;;;;28.07;37.80;101012.22;144994;629;5002;-81
2021/08/31 01:46:11;;;;;;;3.95;2.85;;;;;;;28.06;37.86;101007.81;144994;669;5002;-81
2021/08/31 01:48:37;;;;;;;2.83;2.50;;;;;;;28.06;38.09;101010.47;144994;575;5002;-80
2021/08/31 01:51:06;;;;;;;7.50;3.47;;;;;;;28.04;38.14;101015.00;144994;656;5002;-82
2021/08/31 01:53:33;;;;;;;3.40;2.83;;;;;;;28.02;37.85;101006.22;144994;600;5002;-81
2021/08/31 01:56:00;;;;;;;4.18;2.15;;;;;;;28.00;37.75;101005.41;144994;590;5002;-81
2021/08/31 01:58:26;;;;;;;4.85;2.80;;;;;;;27.98;37.76;101012.56;144994;594;5002;-80
2021/08/31 02:00:53;;;;;;;5.43;2.70;;;;;;;27.96;37.99;101006.44;144994;572;5002;-81
2021/08/31 02:03:20;;;;;;;4.25;2.55;;;;;;;27.96;38.00;101003.78;144994;693;5002;-79
2021/08/31 02:05:46;;;;;;;4.70;2.58;;;;;;;27.95;38.11;101013.59;144994;565;5002;-80
2021/08/31 02:08:13;;;;;;;3.45;2.67;;;;;;;27.93;38.13;101002.03;144994;621;5002;-80
2021/08/31 02:10:42;;;;;;;2.65;2.17;;;;;;;27.92;38.12;100997.66;144994;646;5002;-81
2021/08/31 02:13:09;;;;;;;5.10;2.35;;;;;;;27.92;37.95;101000.31;144994;566;5002;-81
2021/08/31 02:15:35;;;;;;;4.57;2.62;;;;;;;27.91;38.18;101003.06;144994;614;5002;-82
2021/08/31 02:18:02;;;;;;;3.78;2.60;;;;;;;27.90;38.31;101004.81;144994;600;5002;-80
2021/08/31 02:20:29;;;;;;;4.90;2.42;;;;;;;27.88;38.05;101002.22;144994;600;5002;-81
2021/08/31 02:22:55;;;;;;;4.22;2.30;;;;;;;27.87;38.24;101013.84;144994;589;5002;-80
2021/08/31 02:25:22;;;;;;;7.00;3.10;;;;;;;27.85;38.39;101013.03;144994;755;5002;-80
2021/08/31 02:27:49;;;;;;;5.65;3.10;;;;;;;27.82;38.25;101018.47;144993;563;5002;-81
2021/08/31 02:30:15;;;;;;;5.45;3.30;;;;;;;27.81;38.15;101018.53;144993;651;5002;-82
2021/08/31 02:32:44;;;;;;;4.15;3.30;;;;;;;27.80;38.40;101022.97;144994;570;5002;-80
2021/08/31 02:35:11;;;;;;;5.53;2.95;;;;;;;27.79;38.16;101021.25;144994;576;5002;-79
2021/08/31 02:37:37;;;;;;;4.43;2.90;;;;;;;27.77;38.15;101028.44;144994;666;5002;-81
2021/08/31 02:40:05;;;;;;;4.05;2.72;;;;;;;27.74;38.05;101025.88;144994;570;5002;-80
2021/08/31 02:42:32;;;;;;;3.83;2.60;;;;;;;27.71;38.44;101025.97;144994;565;5002;-80
2021/08/31 02:44:58;;;;;;;3.25;2.60;;;;;;;27.70;37.97;101034.94;144994;583;5002;-80
2021/08/31 02:47:25;;;;;;;3.03;2.65;;;;;;;27.69;38.32;101041.19;144994;585;5002;-80
2021/08/31 02:49:51;;;;;;;4.32;2.85;;;;;;;27.67;38.18;101035.03;144994;595;5002;-80
2021/08/31 02:52:17;;;;;;;4.03;2.83;;;;;;;27.66;38.42;101042.19;144994;573;5002;-80
2021/08/31 02:54:44;;;;;;;4.87;3.10;;;;;;;27.65;38.43;101032.44;144994;566;5002;-81
2021/08/31 02:57:10;;;;;;;6.18;3.25;;;;;;;27.63;38.15;101041.41;144994;585;5002;-81
2021/08/31 02:59:38;;;;;;;7.15;2.87;;;;;;;27.63;38.44;101044.06;144994;648;5002;-81
2021/08/31 03:02:05;;;;;;;4.80;3.50;;;;;;;27.64;38.73;101048.47;144994;565;5002;-81
2021/08/31 03:04:33;;;;;;;3.95;3.10;;;;;;;27.64;38.64;101051.16;144994;597;5002;-81
2021/08/31 03:06:59;;;;;;;6.87;3.10;;;;;;;27.63;38.51;101050.28;144994;579;4566;-81
2021/08/31 03:09:25;;;;;;;3.58;2.67;;;;;;;27.61;38.77;101052.12;144994;766;4579;-80
2021/08/31 03:11:52;;;;;;;5.85;2.58;;;;;;;27.60;38.70;101061.06;144994;577;4572;-80
2021/08/31 03:14:22;;;;;;;4.50;2.87;;;;;;;27.59;38.72;101061.97;144992;672;6002;-81
2021/08/31 03:16:49;;;;;;;2.95;2.12;;;;;;;27.59;38.52;101066.44;144992;603;6002;-80
2021/08/31 03:19:18;;;;;;;8.63;3.67;;;;;;;27.58;38.32;101068.22;144992;590;6002;-80
2021/08/31 03:21:44;;;;;;;3.40;2.60;;;;;;;27.57;38.27;101065.62;144992;593;6002;-81
2021/08/31 03:24:11;;;;;;;3.78;2.60;;;;;;;27.55;38.45;101067.47;144992;614;6002;-81
2021/08/31 03:26:37;;;;;;;4.03;3.17;;;;;;;27.53;38.40;101069.34;144992;670;6002;-80
2021/08/31 03:29:04;;;;;;;4.72;2.62;;;;;;;27.52;38.43;101071.09;144992;569;6002;-79
2021/08/31 03:31:30;;;;;;;5.70;2.83;;;;;;;27.51;38.44;101066.72;144992;587;6002;-80
2021/08/31 03:33:56;;;;;;;5.37;2.90;;;;;;;27.45;38.47;101069.59;144992;613;6002;-80
2021/08/31 03:36:23;;;;;;;7.97;3.97;;;;;;;27.40;38.49;101075.09;144991;604;6002;-82
2021/08/31 03:38:50;;;;;;;10.32;4.40;;;;;;;27.33;38.46;101078.91;144992;583;6002;-81
2021/08/31 03:41:17;;;;;;;6.43;4.32;;;;;;;27.30;38.61;101068.31;144992;576;6002;-81
2021/08/31 03:43:43;;;;;;;8.90;4.72;;;;;;;27.30;39.14;101079.88;144992;571;6003;-81
2021/08/31 03:46:10;;;;;;;8.75;4.20;;;;;;;27.30;38.97;101082.53;144992;583;6002;-82
2021/08/31 03:48:36;;;;;;;9.07;3.80;;;;;;;27.28;39.14;101080.81;144992;569;6002;-81
2021/08/31 03:51:03;;;;;;;7.43;3.62;;;;;;;27.29;39.13;101086.09;144992;590;6002;-81
2021/08/31 03:53:29;;;;;;;9.75;3.90;;;;;;;27.31;39.18;101092.28;144992;595;6002;-80
2021/08/31 03:55:56;;;;;;;5.82;3.72;;;;;;;27.32;38.86;101102.00;144992;565;6002;-81
2021/08/31 03:58:22;;;;;;;7.50;3.60;;;;;;;27.27;39.44;101109.25;144992;593;6002;-81
2021/08/31 04:00:48;;;;;;;12.48;3.70;;;;;;;27.25;39.23;101113.78;144992;710;6002;-81
2021/08/31 04:03:15;;;;;;;6.40;3.37;;;;;;;27.26;39.21;101114.63;144992;587;6002;-80
2021/08/31 04:05:42;;;;;;;7.62;3.60;;;;;;;27.17;39.13;101110.50;144991;581;6002;-80
2021/08/31 04:08:08;;;;;;;5.60;3.62;;;;;;;27.17;39.14;101114.94;144992;797;6002;-81
2021/08/31 04:10:34;;;;;;;5.93;3.47;;;;;;;27.18;39.39;101116.69;144992;599;6002;-80
2021/08/31 04:13:01;;;;;;;8.35;3.62;;;;;;;27.19;39.73;101124.63;144992;748;6002;-80
2021/08/31 04:15:27;;;;;;;7.55;3.60;;;;;;;27.18;39.20;101122.03;144992;598;6002;-80
2021/08/31 04:17:54;;;;;;;8.35;4.37;;;;;;;27.18;39.11;101117.56;144992;589;6002;-80
2021/08/31 04:20:21;;;;;;;7.68;3.80;;;;;;;27.19;39.43;101111.31;144992;572;6002;-80
2021/08/31 04:22:47;;;;;;;5.45;2.83;;;;;;;27.19;39.51;101115.75;144992;572;6002;-80
2021/08/31 04:25:13;;;;;;;5.75;3.40;;;;;;;27.19;39.18;101116.66;144992;599;6002;-80
2021/08/31 04:27:40;;;;;;;9.00;3.20;;;;;;;27.22;39.05;101110.31;144992;601;6002;-81
2021/08/31 04:30:07;;;;;;;4.70;3.25;;;;;;;27.22;39.39;101110.31;144992;593;6002;-80
2021/08/31 04:32:33;;;;;;;6.22;3.72;;;;;;;27.22;39.42;101111.22;144992;609;6002;-80
2021/08/31 04:35:03;;;;;;;10.57;3.80;;;;;;;27.25;39.15;101110.22;144992;575;6002;-81
2021/08/31 04:37:30;;;;;;;6.57;3.47;;;;;;;27.27;39.39;101119.06;144992;581;6002;-80
2021/08/31 04:39:58;;;;;;;5.03;3.30;;;;;;;27.29;39.17;101109.22;144992;596;6002;-80
2021/08/31 04:42:24;;;;;;;5.95;3.60;;;;;;;27.31;39.46;101116.28;144992;646;6002;-79
2021/08/31 04:44:51;;;;;;;9.15;4.72;;;;;;;27.33;39.23;101116.22;144992;685;6002;-81
2021/08/31 04:47:18;;;;;;;7.80;4.47;;;;;;;27.40;39.29;101119.53;144992;607;6002;-80
2021/08/31 04:49:45;;;;;;;7.78;4.47;;;;;;;27.43;39.38;101120.31;144992;615;6002;-82
2021/08/31 04:52:12;;;;;;;8.85;5.10;;;;;;;27.51;39.51;101125.37;144992;636;6002;-82
2021/08/31 04:54:39;;;;;;;10.02;4.70;;;;;;;27.56;39.20;101125.22;144992;581;6002;-81
2021/08/31 04:57:05;;;;;;;10.07;4.40;;;;;;;27.59;39.27;101127.78;144992;668;6002;-80
2021/08/31 04:59:32;;;;;;;6.18;3.55;;;;;;;27.62;39.16;101125.00;144992;654;6002;-83
2021/08/31 05:01:58;;;;;;;10.18;3.72;;;;;;;27.64;39.30;101128.47;144992;571;6002;-80
2021/08/31 05:04:28;;;;;;;8.35;3.75;;;;;;;27.67;39.07;101131.03;144992;589;6002;-80
2021/08/31 05:06:56;;;;;;;11.68;4.40;;;;;;;27.71;38.77;101131.81;144992;572;6002;-81
2021/08/31 05:09:22;;;;;;;8.98;4.80;;;;;;;27.71;38.90;101135.31;144992;570;6002;-80
2021/08/31 05:11:49;;;;;;;9.57;4.95;;;;;;;27.72;39.03;101137.06;144992;565;6002;-81
2021/08/31 05:14:17;;;;;;;9.75;5.35;;;;;;;27.72;38.94;101133.56;144992;589;6002;-81
2021/08/31 05:16:43;;;;;;;11.15;6.30;;;;;;;27.72;38.83;101134.41;144992;697;6002;-82
2021/08/31 05:19:10;;;;;;;10.18;5.72;;;;;;;27.73;38.76;101138.84;144992;581;6002;-82
2021/08/31 05:21:36;;;;;;;10.30;5.07;;;;;;;27.74;39.02;101142.34;144992;586;6002;-80
2021/08/31 05:24:03;;;;;;;8.02;4.72;;;;;;;27.76;38.96;101140.50;144992;590;6002;-80
2021/08/31 05:26:30;;;;;;;4.53;3.92;;;;;;;27.71;39.19;101137.12;144992;585;6002;-79
2021/08/31 05:28:56;;;;;;;11.18;4.20;;;;;;;27.71;39.04;101140.66;144992;608;6002;-80
2021/08/31 05:31:23;;;;;;;9.35;3.67;;;;;;;27.68;39.09;101136.31;144992;601;6002;-82
2021/08/31 05:33:49;;;;;;;7.90;4.07;;;;;;;27.71;39.08;101142.47;144992;684;6002;-82
2021/08/31 05:36:16;;;;;;;9.60;4.35;;;;;;;27.73;39.33;101141.50;144992;583;6002;-81
2021/08/31 05:38:42;;;;;;;9.40;4.32;;;;;;;27.79;39.15;101143.06;144992;696;6002;-81
2021/08/31 05:41:09;;;;;;;8.93;4.05;;;;;;;27.84;39.15;101136.66;144992;593;6002;-81
2021/08/31 05:43:35;;;;;;;11.18;3.80;;;;;;;27.91;39.24;101139.97;144992;670;6002;-80
2021/08/31 05:46:01;;;;;;;12.15;4.43;;;;;;;27.96;39.25;101146.03;144992;599;6002;-80
2021/08/31 05:48:28;;;;;;;9.18;4.22;;;;;;;28.00;39.18;101139.66;144992;583;6002;-81
2021/08/31 05:50:54;;;;;;;6.70;3.90;;;;;;;28.04;39.22;101137.75;144992;592;6002;-81
2021/08/31 05:53:21;;;;;;;6.25;4.18;;;;;;;28.12;39.04;101142.81;144992;620;6002;-80
2021/08/31 05:55:47;;;;;;;6.57;3.83;;;;;;;28.19;38.91;101147.00;144992;616;6002;-80
2021/08/31 05:58:15;;;;;;;8.57;4.78;;;;;;;28.25;39.15;101143.22;144992;570;6002;-80
2021/08/31 06:00:41;;;;;;;8.55;4.50;;;;;;;28.31;39.02;101138.50;144992;607;6002;-81
2021/08/31 06:03:07;;;;;;;7.68;4.68;;;;;;;28.38;38.93;101139.16;144992;572;6002;-81
2021/08/31 06:05:34;;;;;;;24.73;4.57;;;;;;;28.46;39.04;101139.75;144992;583;6002;-81
2021/08/31 06:08:01;;;;;;;7.82;4.07;;;;;;;28.53;39.12;101135.03;144992;763;6002;-78
2021/08/31 06:10:28;;;;;;;10.40;4.68;;;;;;;28.58;39.07;101123.25;144992;576;6002;-80
2021/08/31 06:12:54;;;;;;;8.00;5.32;;;;;;;28.66;38.82;101124.78;144992;710;6002;-82
2021/08/31 06:15:21;;;;;;;6.72;4.40;;;;;;;28.72;38.78;101127.22;144992;575;6002;-80
2021/08/31 06:17:47;;;;;;;6.00;4.97;;;;;;;28.80;38.72;101129.56;144992;592;6002;-81
2021/08/31 06:20:14;;;;;;;12.52;5.60;;;;;;;28.86;38.48;101135.53;144992;686;6002;-81
2021/08/31 06:22:40;;;;;;;9.75;5.72;;;;;;;28.97;38.82;101128.87;144992;585;6002;-80
2021/08/31 06:25:07;;;;;;;8.43;4.87;;;;;;;29.08;38.65;101140.00;144992;578;6002;-80
2021/08/31 06:27:34;;;;;;;8.68;4.40;;;;;;;29.18;38.34;101136.03;144992;570;6003;-79
2021/08/31 06:30:00;;;;;;;13.80;4.50;;;;;;;29.27;38.33;101132.09;144992;570;6002;-80
2021/08/31 06:32:27;;;;;;;13.35;9.52;;;;;;;29.35;38.53;101140.72;144992;566;6002;-80
2021/08/31 06:34:55;;;;;;;13.20;8.15;;;;;;;29.43;38.25;101135.00;144992;655;6003;-81
2021/08/31 06:37:21;;;;;;;15.27;5.22;;;;;;;29.43;38.56;101140.34;144992;637;6002;-81
2021/08/31 06:39:47;;;;;;;8.25;4.30;;;;;;;29.49;38.33;101142.78;144992;613;6002;-80
2021/08/31 06:42:14;;;;;;;10.68;4.45;;;;;;;29.57;38.73;101151.31;144992;571;6002;-80
2021/08/31 06:44:41;;;;;;;9.27;4.30;;;;;;;29.65;38.25;101146.53;144992;597;6002;-81
2021/08/31 06:47:07;;;;;;;6.75;4.20;;;;;;;29.73;38.81;101153.34;144992;598;6002;-81
2021/08/31 06:49:34;;;;;;;10.48;5.45;;;;;;;29.72;38.56;101154.31;144992;640;6002;-81
2021/08/31 06:52:01;;;;;;;8.68;5.15;;;;;;;29.65;39.75;101156.34;144992;591;6002;-80
2021/08/31 06:54:27;;;;;;;10.77;3.95;;;;;;;29.63;39.33;101156.41;144992;570;6002;-81
2021/08/31 06:56:53;;;;;;;5.97;3.00;;;;;;;29.55;40.36;101155.03;144992;678;6002;-81
2021/08/31 06:59:20;;;;;;;5.85;3.10;;;;;;;29.54;40.06;101151.50;144992;608;6002;-81
2021/08/31 07:01:46;;;;;;;6.20;3.70;;;;;;;29.48;40.10;101157.09;144992;565;6002;-79
2021/08/31 07:04:13;;;;;;;5.07;2.95;;;;;;;29.53;39.90;101163.09;144992;620;6002;-81
2021/08/31 07:06:39;;;;;;;5.78;2.90;;;;;;;29.43;40.81;101159.06;144992;579;6002;-80
2021/08/31 07:09:06;;;;;;;3.60;2.20;;;;;;;29.45;40.46;101162.56;144992;733;6002;-80
2021/08/31 07:11:32;;;;;;;3.25;2.47;;;;;;;29.46;40.22;101162.50;144992;673;6002;-81
2021/08/31 07:14:02;;;;;;;3.60;2.83;;;;;;;29.45;41.58;101165.25;144992;666;6002;-79
2021/08/31 07:16:28;;;;;;;3.42;2.58;;;;;;;29.41;40.89;101158.28;144992;614;6002;-80
2021/08/31 07:18:55;;;;;;;3.50;2.22;;;;;;;29.37;40.77;101157.53;144992;596;6002;-81
2021/08/31 07:21:21;;;;;;;3.50;2.10;;;;;;;29.37;41.17;101159.34;144992;573;6002;-81
2021/08/31 07:23:49;;;;;;;4.28;2.25;;;;;;;29.47;40.76;101155.34;144992;576;6002;-81
2021/08/31 07:26:15;;;;;;;4.35;2.42;;;;;;;29.43;40.79;101167.97;144992;593;6002;-80
2021/08/31 07:28:42;;;;;;;4.82;2.70;;;;;;;29.58;40.41;101158.44;144992;600;6002;-81
2021/08/31 07:31:08;;;;;;;5.60;2.87;;;;;;;29.55;41.10;101166.59;144992;571;6002;-79
2021/08/31 07:33:35;;;;;;;4.18;2.60;;;;;;;29.51;41.27;101164.09;144992;587;6002;-82
2021/08/31 07:36:01;;;;;;;2.58;2.37;;;;;;;29.55;40.83;101161.22;144992;570;6002;-82
2021/08/31 07:38:28;;;;;;;7.05;3.10;;;;;;;29.43;41.28;101162.63;144992;566;6002;-81
2021/08/31 07:40:54;;;;;;;5.35;2.90;;;;;;;29.55;41.40;101163.91;144992;569;6002;-82
2021/08/31 07:43:20;;;;;;;4.50;2.75;;;;;;;29.53;40.58;101168.47;144992;580;6002;-81
2021/08/31 07:45:47;;;;;;;6.85;3.28;;;;;;;29.35;42.84;101169.22;144992;680;6002;-81
2021/08/31 07:48:13;;;;;;;5.72;3.42;;;;;;;29.57;41.78;101172.72;144992;571;6002;-79
2021/08/31 07:50:41;;;;;;;6.78;3.30;;;;;;;29.66;42.34;101171.47;144992;567;6002;-82
2021/08/31 07:53:08;;;;;;;7.12;3.05;;;;;;;29.75;41.48;101180.88;144992;589;6002;-80
2021/08/31 07:55:34;;;;;;;4.10;2.95;;;;;;;29.87;41.72;101176.88;144992;620;6002;-82
2021/08/31 07:58:01;;;;;;;4.47;2.45;;;;;;;29.96;41.19;101176.47;144992;591;6002;-80
2021/08/31 08:00:28;;;;;;;5.75;3.00;;;;;;;29.99;41.72;101177.19;144992;577;6002;-80
2021/08/31 08:02:54;;;;;;;4.35;2.30;;;;;;;30.06;40.40;101180.47;144992;594;6002;-81
2021/08/31 08:05:21;;;;;;;4.15;2.30;;;;;;;30.17;39.50;101182.66;144992;632;6002;-81
2021/08/31 08:07:48;;;;;;;4.07;2.20;;;;;;;30.06;39.95;101187.62;144992;576;6002;-80
2021/08/31 08:10:14;;;;;;;3.53;2.40;;;;;;;29.94;39.42;101189.91;144991;603;6002;-81
2021/08/31 08:12:40;;;;;;;2.90;2.40;;;;;;;29.97;39.76;101184.44;144992;582;6002;-82
2021/08/31 08:15:08;;;;;;;2.87;2.35;;;;;;;29.98;39.86;101183.47;144992;578;6002;-83
2021/08/31 08:17:34;;;;;;;3.12;2.10;;;;;;;30.04;38.52;101179.66;144992;571;6002;-81
2021/08/31 08:20:00;;;;;;;3.90;2.37;;;;;;;29.92;39.29;101178.38;144992;588;6002;-81
2021/08/31 08:22:29;;;;;;;2.55;2.17;;;;;;;29.98;36.75;101172.75;144992;597;6002;-80
2021/08/31 08:24:56;;;;;;;3.37;2.00;;;;;;;29.95;37.41;101170.22;144992;600;6002;-80
2021/08/31 08:27:22;;;;;;;3.05;2.03;;;;;;;30.00;36.84;101164.66;144992;564;6002;-81
2021/08/31 08:29:49;;;;;;;4.95;1.98;;;;;;;30.16;36.30;101162.16;144992;574;6002;-82
2021/08/31 08:32:15;;;;;;;5.10;2.40;;;;;;;30.08;36.10;101159.84;144992;578;6002;-80
2021/08/31 08:34:43;;;;;;;4.62;2.20;;;;;;;30.20;35.90;101164.62;144992;573;6002;-82
2021/08/31 08:37:10;;;;;;;3.37;2.30;;;;;;;30.15;35.52;101163.97;144992;571;6002;-82
2021/08/31 08:39:37;;;;;;;4.25;2.30;;;;;;;30.24;36.03;101151.97;144992;616;6002;-80
2021/08/31 08:42:05;;;;;;;3.53;1.98;;;;;;;30.24;35.51;101159.16;144992;596;6011;-81
2021/08/31 08:44:33;;;;;;;3.25;2.22;;;;;;;30.20;35.99;101153.06;144992;581;6002;-78
2021/08/31 08:47:00;;;;;;;4.15;2.10;;;;;;;30.25;35.29;101158.22;144992;563;6002;-81
2021/08/31 08:49:27;;;;;;;3.80;2.40;;;;;;;30.22;35.01;101153.84;144992;589;6002;-81
2021/08/31 08:51:55;;;;;;;4.93;2.50;;;;;;;30.27;35.63;101156.31;144992;564;6002;-79
2021/08/31 08:54:21;;;;;;;2.67;2.00;;;;;;;30.28;34.79;101147.38;144992;573;6002;-81
2021/08/31 08:56:48;;;;;;;4.55;2.58;;;;;;;30.14;36.28;101153.34;144992;576;6002;-81
2021/08/31 08:59:14;;;;;;;2.47;2.10;;;;;;;30.24;35.29;101151.13;144992;645;6002;-80
2021/08/31 09:01:47;;;;;;;4.10;2.20;;;;;;;30.30;35.04;101148.16;144992;582;6002;-81
2021/08/31 09:04:18;;;;;;;5.50;2.28;;;;;;;30.23;33.99;101146.72;144992;586;6002;-78
2021/08/31 09:06:45;;;;;;;3.45;2.47;;;;;;;30.19;34.62;101151.31;144992;589;6002;-80
2021/08/31 09:09:13;;;;;;;2.83;2.00;;;;;;;30.06;34.94;101147.47;144992;601;6002;-81
2021/08/31 09:11:47;;;;;;;3.50;2.42;;;;;;;30.11;36.97;101140.97;144992;652;6002;-82
2021/08/31 09:14:27;;;;;;;3.62;2.45;;;;;;;30.11;36.66;101138.28;144992;597;6002;-81
2021/08/31 09:16:59;;;;;;;2.90;2.53;;;;;;;30.06;36.99;101134.09;144992;566;6002;-80
2021/08/31 09:19:36;;;;;;;3.15;2.35;;;;;;;30.23;36.80;101136.88;144992;569;6002;-80
2021/08/31 09:22:36;;;;;;;6.70;2.67;;;;;;;30.32;36.79;101133.78;144992;617;6002;-84
2021/08/31 09:25:11;;;;;;;4.25;2.22;;;;;;;30.40;36.87;101136.13;144992;577;6004;-82
2021/08/31 09:27:40;;;;;;;4.25;1.98;;;;;;;30.31;36.31;101134.69;144992;591;6004;-82
2021/08/31 09:30:21;;;;;;;2.83;2.00;;;;;;;30.33;36.67;101134.63;144993;592;6004;-82
2021/08/31 09:33:09;;;;;;;3.35;2.30;;;;;;;30.35;36.61;101125.59;144993;565;6002;-80
2021/08/31 09:35:40;;;;;;;4.05;3.10;;;;;;;30.30;37.71;101130.28;144993;597;6002;-80
2021/08/31 09:38:18;;;;;;;2.17;1.98;;;;;;;30.29;37.70;101119.62;144993;571;6002;-82
2021/08/31 09:40:51;;;;;;;2.85;2.55;;;;;;;30.33;37.80;101123.91;144993;599;6002;-81
2021/08/31 09:43:22;;;;;;;4.90;2.30;;;;;;;30.45;38.38;101130.53;144993;627;6002;-79
2021/08/31 09:45:51;;;;;;;4.25;2.25;;;;;;;30.45;38.60;101127.84;144992;673;6002;-82
2021/08/31 09:48:20;;;;;;;3.55;2.47;;;;;;;30.37;38.56;101121.03;144993;605;6002;-80
2021/08/31 09:50:49;;;;;;;4.70;2.08;;;;;;;30.50;38.91;101117.81;144993;591;6002;-81
2021/08/31 09:53:18;;;;;;;2.70;2.30;;;;;;;30.39;39.62;101121.00;144993;602;6002;-81
2021/08/31 09:56:09;;;;;;;3.97;2.60;;;;;;;30.35;40.32;101104.16;144993;628;6002;-81
2021/08/31 09:58:37;;;;;;;3.58;2.40;;;;;;;30.35;40.39;101117.56;144993;596;6000;-83
2021/08/31 10:01:04;;;;;;;3.53;2.40;;;;;;;30.30;40.90;101108.84;144992;565;6002;-79
2021/08/31 10:03:31;;;;;;;2.90;2.47;;;;;;;30.32;41.93;101104.31;144992;599;6002;-80
2021/08/31 10:06:00;;;;;;;3.65;2.15;;;;;;;30.37;42.26;101112.13;144992;615;6002;-78
2021/08/31 10:08:31;;;;;;;4.22;2.60;;;;;;;30.12;43.66;101099.88;144992;575;6002;-79
2021/08/31 10:11:00;;;;;;;3.85;2.58;;;;;;;30.21;42.84;101099.47;144992;598;6002;-80
2021/08/31 10:13:28;;;;;;;3.95;2.50;;;;;;;30.15;43.42;101101.56;144992;581;6002;-80
2021/08/31 10:15:58;;;;;;;3.33;2.42;;;;;;;30.06;43.19;101099.28;144993;577;6002;-81
2021/08/31 10:18:27;;;;;;;5.07;2.47;;;;;;;30.22;42.62;101105.66;144993;628;6002;-81
2021/08/31 10:21:14;;;;;;;3.75;2.30;;;;;;;30.13;43.60;101090.03;144993;595;6002;-81
2021/08/31 10:23:46;;;;;;;4.80;2.67;;;;;;;30.08;43.30;101079.53;144993;604;6000;-80
2021/08/31 10:26:33;;;;;;;4.15;2.40;;;;;;;30.29;42.79;101082.16;144993;616;6002;-81
2021/08/31 10:29:34;;;;;;;3.50;2.50;;;;;;;30.39;43.13;101080.81;144993;623;6002;-81
2021/08/31 10:32:01;;;;;;;3.33;2.55;;;;;;;30.43;43.31;101078.84;144993;589;6000;-82
2021/08/31 10:34:45;;;;;;;5.15;2.80;;;;;;;30.42;43.08;101075.31;144993;594;6002;-82
2021/08/31 10:37:17;;;;;;;3.55;2.42;;;;;;;30.38;43.82;101068.34;144993;595;6000;-82
2021/08/31 10:40:02;;;;;;;3.65;2.67;;;;;;;30.31;43.50;101062.41;144993;570;6002;-82
2021/08/31 10:42:48;;;;;;;3.95;2.60;;;;;;;30.31;43.21;101057.03;144993;616;6000;-82
2021/08/31 10:45:38;;;;;;;5.30;2.97;;;;;;;30.27;43.62;101063.47;144993;627;6004;-81
2021/08/31 10:48:42;;;;;;;3.50;2.50;;;;;;;30.31;43.59;101053.50;144993;619;6004;-82
2021/08/31 10:51:10;;;;;;;3.25;2.80;;;;;;;30.34;43.11;101053.38;144992;570;6000;-82
2021/08/31 10:53:46;;;;;;;3.30;2.65;;;;;;;30.39;43.12;101041.50;144993;570;6004;-81
2021/08/31 10:56:43;;;;;;;4.32;2.85;;;;;;;30.44;42.32;101038.59;144993;564;6002;-81
2021/08/31 10:59:33;;;;;;;4.55;2.70;;;;;;;30.45;42.86;101034.09;144993;616;6004;-81
2021/08/31 11:01:59;;;;;;;5.05;2.75;;;;;;;30.50;43.02;101045.50;144993;585;6004;-81
2021/08/31 11:04:28;;;;;;;3.90;2.85;;;;;;;30.52;42.30;101039.09;144993;605;6002;-81
2021/08/31 11:07:02;;;;;;;3.85;2.60;;;;;;;30.61;41.94;101032.44;144993;594;6002;-81
2021/08/31 11:09:30;;;;;;;5.32;3.15;;;;;;;30.59;41.58;101036.13;144994;594;5002;-82
2021/08/31 11:12:05;;;;;;;3.28;2.80;;;;;;;30.49;41.89;101031.22;144994;627;5002;-80
2021/08/31 11:14:53;;;;;;;3.87;2.70;;;;;;;30.45;42.41;101036.78;144994;598;5002;-80
2021/08/31 11:17:42;;;;;;;5.43;3.75;;;;;;;30.50;42.31;101032.97;144994;592;5002;-82
2021/08/31 11:20:26;;;;;;;6.72;5.57;;;;;;;30.68;41.69;101023.13;144994;573;5004;-80
2021/08/31 11:23:14;;;;;;;5.45;3.40;;;;;;;30.74;40.70;101019.28;144994;625;5004;-80
2021/08/31 11:25:49;;;;;;;4.10;3.33;;;;;;;30.79;41.31;101017.25;144994;574;5005;-81
2021/08/31 11:28:18;;;;;;;6.00;3.67;;;;;;;30.84;41.41;101020.56;144993;685;5004;-82
2021/08/31 11:31:13;;;;;;;3.25;2.40;;;;;;;30.96;40.71;101029.84;144994;606;5002;-82
2021/08/31 11:33:42;;;;;;;3.78;2.80;;;;;;;31.02;40.48;101017.91;144994;562;5004;-83
2021/08/31 11:36:20;;;;;;;4.82;2.97;;;;;;;31.03;40.80;101025.03;144994;594;5004;-84
2021/08/31 11:38:49;;;;;;;4.20;3.00;;;;;;;31.01;42.25;101024.25;144994;563;5004;-80